This is the latest recevied weather packets stored in our database for station/object KG5VSR. If no packets are shown the sender has not sent any weather packets the latest 10 day(s).
| Time | Temp. | Humidity | Pressure | Rain* | Wind** | Luminosity | Snow |
|---|---|---|---|---|---|---|---|
| 1788325851 | 30° C | 69% | 1015.7 hPa | 0 mm | - | 0 W/m² | - |
| 1788324046 | 30.56° C | 67% | 1015.8 hPa | 0 mm | - | 0 W/m² | - |
| 1788322243 | 31.11° C | 64% | 1015.6 hPa | 0 mm | - | 0 W/m² | - |
| 1788320443 | 31.67° C | 60% | 1015.2 hPa | 0 mm | - | 0 W/m² | - |
| 1788318640 | 31.67° C | 59% | 1014.9 hPa | 0 mm | - | 0 W/m² | - |
| 1788316836 | 32.78° C | 57% | 1014.4 hPa | 0 mm | - | 0 W/m² | - |
| 1788315036 | 32.78° C | 56% | 1014 hPa | 0 mm | - | 0 W/m² | - |
| 1788313233 | 33.33° C | 55% | 1013.5 hPa | 0 mm | - | 0 W/m² | - |
| 1788311431 | 33.33° C | 55% | 1013.3 hPa | 0 mm | - | 0 W/m² | - |
| 1788309627 | 35° C | 51% | 1013.3 hPa | 0 mm | - | 6 W/m² | - |
| 1788307827 | 35.56° C | 49% | 1013.3 hPa | 0 mm | - | 30 W/m² | - |
| 1788306025 | 36.11° C | 48% | 1013.4 hPa | 0 mm | - | 73 W/m² | - |
| 1788304221 | 35.56° C | 49% | 1013.8 hPa | 0 mm | - | 75 W/m² | - |
| 1788302421 | 36.11° C | 48% | 1013.7 hPa | 0 mm | - | 124 W/m² | - |
| 1788300617 | 37.22° C | 47% | 1014 hPa | 0 mm | - | 139 W/m² | - |
| 1788298814 | 37.22° C | 46% | 1014 hPa | 0 mm | - | 128 W/m² | - |
| 1788297014 | 37.22° C | 47% | 1014.2 hPa | 0 mm | - | 115 W/m² | - |
| 1788295209 | 37.22° C | 46% | 1014.5 hPa | 0 mm | - | 252 W/m² | - |
| 1788293408 | 37.78° C | 47% | 1014.8 hPa | 0 mm | - | 661 W/m² | - |
| 1788291602 | 35.56° C | 50% | 1015.3 hPa | 0 mm | - | 111 W/m² | - |
| 1788289801 | 37.78° C | 45% | 1015.4 hPa | 0 mm | - | 712 W/m² | - |
| 1788287997 | 36.11° C | 48% | 1016.4 hPa | 0 mm | - | 452 W/m² | - |
| 1788286193 | 35° C | 53% | 1016.5 hPa | 0 mm | - | 791 W/m² | - |
| 1788284390 | 35.56° C | 51% | 1017.3 hPa | 0 mm | - | 201 W/m² | - |
| 1788282589 | 36.11° C | 53% | 1017.6 hPa | 0 mm | - | 462 W/m² | - |
* Rain latest hour (hover to see other rain measurements)
** Current wind speed in m/s (hover to see current wind gust speed)